Time;durP1;ratioP1;P1;durP2;ratioP2;P2;SDS_P1;SDS_P2;PMS_P1;PMS_P2;Temp;Humidity;BMP_temperature;BMP_pressure;BME280_temperature;BME280_humidity;BME280_pressure;Samples;Min_cycle;Max_cycle;Signal;HPM_P1;HPM_P2
2021/03/14 00:00:41;;;;;;;0.77;0.20;;;10.50;58.50;;;;;;5036101;28;20021;-83
2021/03/14 00:03:09;;;;;;;1.80;0.10;;;10.50;58.70;;;;;;5042704;28;20021;-83
2021/03/14 00:05:36;;;;;;;1.17;0.30;;;10.50;58.70;;;;;;5045190;28;20048;-83
2021/03/14 00:08:03;;;;;;;1.03;0.30;;;10.50;58.80;;;;;;5045950;28;20108;-83
2021/03/14 00:10:28;;;;;;;2.93;0.30;;;10.50;58.90;;;;;;5050125;28;20029;-83
2021/03/14 00:12:54;;;;;;;1.07;0.30;;;10.40;58.90;;;;;;5041221;28;20025;-83
2021/03/14 00:15:22;;;;;;;6.00;0.20;;;10.30;59.10;;;;;;5054787;28;20025;-83
2021/03/14 00:17:49;;;;;;;0.87;0.20;;;10.00;59.70;;;;;;5048508;28;20017;-83
2021/03/14 00:20:16;;;;;;;2.73;0.30;;;9.80;60.90;;;;;;5040404;28;20036;-84
2021/03/14 00:22:42;;;;;;;0.73;0.20;;;10.00;61.30;;;;;;5039815;28;20033;-84
2021/03/14 00:25:10;;;;;;;0.43;0.13;;;10.00;60.60;;;;;;5048265;28;20032;-83
2021/03/14 00:27:36;;;;;;;0.70;0.20;;;10.00;61.00;;;;;;5047754;28;20045;-83
2021/03/14 00:30:07;;;;;;;0.40;0.20;;;10.00;61.10;;;;;;5047485;28;20392;-84
2021/03/14 00:32:33;;;;;;;2.37;0.37;;;10.10;60.70;;;;;;5036304;28;20029;-84
2021/03/14 00:34:59;;;;;;;0.57;0.30;;;10.10;60.40;;;;;;5036547;28;20477;-83
2021/03/14 00:37:25;;;;;;;0.73;0.23;;;9.90;60.10;;;;;;5037362;28;20151;-83
2021/03/14 00:39:50;;;;;;;2.20;0.33;;;9.70;60.40;;;;;;5045277;28;20025;-84
2021/03/14 00:42:16;;;;;;;0.33;0.20;;;9.70;60.40;;;;;;5044805;28;20059;-83
2021/03/14 00:44:42;;;;;;;2.10;0.30;;;9.60;60.50;;;;;;5049070;28;20029;-84
2021/03/14 00:47:10;;;;;;;0.60;0.40;;;9.60;60.60;;;;;;5052364;28;20036;-83
2021/03/14 00:49:36;;;;;;;0.60;0.20;;;9.70;60.90;;;;;;5041312;28;20060;-83
2021/03/14 00:52:02;;;;;;;0.53;0.27;;;9.60;60.40;;;;;;5041092;28;20030;-83
2021/03/14 00:54:28;;;;;;;0.70;0.20;;;9.50;60.70;;;;;;5041010;28;20388;-83
2021/03/14 00:56:54;;;;;;;0.27;0.20;;;9.30;61.00;;;;;;5036269;28;20033;-83
2021/03/14 00:59:20;;;;;;;0.30;0.20;;;9.30;61.40;;;;;;5045458;28;20029;-84
2021/03/14 01:01:45;;;;;;;0.50;0.20;;;9.40;61.30;;;;;;5037712;28;20395;-83
2021/03/14 01:04:11;;;;;;;0.60;0.17;;;9.50;61.30;;;;;;5038851;28;20029;-83
2021/03/14 01:06:37;;;;;;;0.40;0.20;;;9.50;61.10;;;;;;5043155;28;20037;-83
2021/03/14 01:09:04;;;;;;;0.93;0.20;;;9.50;60.90;;;;;;5041413;28;20040;-83
2021/03/14 01:11:29;;;;;;;0.80;0.20;;;9.50;61.10;;;;;;5046123;28;20432;-83
2021/03/14 01:13:55;;;;;;;0.67;0.30;;;9.40;61.30;;;;;;5039205;28;20076;-84
2021/03/14 01:16:21;;;;;;;0.40;0.10;;;9.40;61.60;;;;;;5040360;28;20099;-84
2021/03/14 01:18:47;;;;;;;0.37;0.20;;;9.40;61.60;;;;;;5049076;28;20037;-84
2021/03/14 01:21:12;;;;;;;1.37;0.30;;;9.40;61.60;;;;;;5043583;28;20040;-84
2021/03/14 01:23:38;;;;;;;1.27;0.30;;;9.30;61.80;;;;;;5034827;28;20040;-84
2021/03/14 01:26:04;;;;;;;1.20;0.40;;;9.30;61.90;;;;;;5041573;28;20032;-84
2021/03/14 01:28:30;;;;;;;1.40;0.30;;;9.40;62.10;;;;;;5041244;28;20048;-84
2021/03/14 01:30:56;;;;;;;0.87;0.50;;;9.30;61.90;;;;;;5040686;28;20420;-84
2021/03/14 01:33:21;;;;;;;1.50;0.60;;;9.30;62.40;;;;;;5035566;28;20460;-84
2021/03/14 01:35:47;;;;;;;1.50;0.70;;;9.40;62.40;;;;;;5046780;28;20032;-84
2021/03/14 01:38:13;;;;;;;1.53;0.70;;;9.50;62.50;;;;;;5048404;28;20048;-84
2021/03/14 01:40:38;;;;;;;1.37;0.70;;;9.40;62.50;;;;;;5041269;28;20018;-84
2021/03/14 01:43:04;;;;;;;0.70;0.40;;;9.50;62.60;;;;;;5039521;28;20079;-84
2021/03/14 01:45:30;;;;;;;2.00;0.67;;;9.40;62.60;;;;;;5054357;28;20029;-84
2021/03/14 01:47:59;;;;;;;1.73;0.50;;;9.40;62.80;;;;;;5048004;28;20078;-84
2021/03/14 01:50:26;;;;;;;2.63;0.50;;;9.30;62.90;;;;;;5035551;28;20422;-84
2021/03/14 01:52:53;;;;;;;0.60;0.37;;;9.30;62.90;;;;;;5034362;28;20045;-84
2021/03/14 01:55:21;;;;;;;0.70;0.40;;;9.30;63.40;;;;;;5035655;28;20029;-83
2021/03/14 01:57:48;;;;;;;1.47;0.40;;;9.30;63.00;;;;;;5054911;28;20464;-83
2021/03/14 02:00:18;;;;;;;0.90;0.50;;;9.30;63.10;;;;;;5041356;28;20048;-83
2021/03/14 02:02:44;;;;;;;0.87;0.50;;;9.20;63.50;;;;;;5037981;28;20032;-84
2021/03/14 02:05:12;;;;;;;2.10;0.60;;;9.20;63.60;;;;;;5036479;28;20030;-83
2021/03/14 02:07:43;;;;;;;2.13;1.03;;;9.20;63.60;;;;;;5043856;28;20112;-84
2021/03/14 02:10:12;;;;;;;4.13;1.20;;;9.20;63.70;;;;;;5038824;28;20037;-84
2021/03/14 02:12:55;;;;;;;2.17;1.00;;;9.20;63.70;;;;;;5044014;28;20043;-84
2021/03/14 02:15:22;;;;;;;1.67;0.95;;;9.20;63.90;;;;;;5057431;28;20104;-84
2021/03/14 02:17:51;;;;;;;2.63;1.00;;;9.10;63.60;;;;;;5058577;28;20472;-83
2021/03/14 02:20:25;;;;;;;2.07;0.90;;;9.10;63.70;;;;;;5046344;28;20107;-83
2021/03/14 02:23:14;;;;;;;2.00;0.70;;;9.10;63.90;;;;;;5037588;28;20025;-83
2021/03/14 02:26:01;;;;;;;1.80;1.00;;;9.10;63.90;;;;;;5046062;28;20052;-84
2021/03/14 02:28:28;;;;;;;1.77;0.80;;;9.00;63.90;;;;;;5046686;28;20037;-84
2021/03/14 02:30:54;;;;;;;1.27;0.90;;;8.90;63.90;;;;;;5046988;28;20036;-83
2021/03/14 02:33:25;;;;;;;2.90;0.90;;;8.90;64.30;;;;;;5048981;28;20072;-84
2021/03/14 02:35:53;;;;;;;1.20;0.67;;;8.90;64.40;;;;;;5043900;28;20032;-84
2021/03/14 02:38:19;;;;;;;2.07;0.67;;;9.00;64.50;;;;;;5039860;28;20021;-83
2021/03/14 02:40:45;;;;;;;1.47;1.00;;;9.00;64.60;;;;;;5057143;28;20075;-84
2021/03/14 02:43:11;;;;;;;0.87;0.60;;;9.00;64.50;;;;;;5045280;28;20040;-84
2021/03/14 02:45:38;;;;;;;1.70;0.77;;;9.00;64.40;;;;;;5043880;28;20037;-84
2021/03/14 02:48:06;;;;;;;1.10;0.80;;;9.00;64.50;;;;;;5048263;28;20029;-84
2021/03/14 02:50:32;;;;;;;0.93;0.60;;;9.00;65.10;;;;;;5045321;28;20104;-84
2021/03/14 02:52:59;;;;;;;1.30;0.80;;;9.00;64.60;;;;;;5045932;28;20117;-84
2021/03/14 02:55:26;;;;;;;2.57;1.60;;;9.00;64.70;;;;;;5043366;28;20134;-84
2021/03/14 02:57:54;;;;;;;1.87;1.13;;;9.10;64.80;;;;;;5038066;28;20045;-84
2021/03/14 03:00:24;;;;;;;1.97;1.23;;;9.10;64.80;;;;;;5036988;28;20040;-84
2021/03/14 03:02:51;;;;;;;1.07;0.73;;;9.10;64.80;;;;;;5050256;28;20480;-84
2021/03/14 03:05:20;;;;;;;3.50;0.53;;;9.10;64.70;;;;;;5047794;28;20369;-84
2021/03/14 03:07:52;;;;;;;3.93;0.80;;;9.10;64.60;;;;;;5063719;28;20380;-84
2021/03/14 03:10:19;;;;;;;1.10;0.70;;;9.10;64.60;;;;;;5044583;28;20033;-84
2021/03/14 03:12:49;;;;;;;0.90;0.70;;;9.00;64.70;;;;;;5047770;28;20044;-84
2021/03/14 03:15:18;;;;;;;1.00;0.70;;;9.00;65.00;;;;;;5043679;28;20116;-84
2021/03/14 03:17:44;;;;;;;4.23;0.80;;;9.00;65.00;;;;;;5049759;28;20024;-84
2021/03/14 03:20:12;;;;;;;6.17;1.00;;;9.00;64.80;;;;;;5046278;28;20028;-84
2021/03/14 03:22:38;;;;;;;1.93;0.80;;;9.00;64.90;;;;;;5054646;28;20025;-84
2021/03/14 03:25:06;;;;;;;1.23;0.53;;;9.00;64.90;;;;;;5047241;28;20468;-84
2021/03/14 03:27:37;;;;;;;0.97;0.77;;;9.00;65.30;;;;;;5049375;28;20647;-84
2021/03/14 03:30:06;;;;;;;1.50;0.87;;;9.00;65.30;;;;;;5038572;28;20029;-83
2021/03/14 03:32:32;;;;;;;1.07;0.77;;;9.00;65.20;;;;;;5038266;28;20117;-84
2021/03/14 03:34:58;;;;;;;0.57;0.47;;;9.00;65.20;;;;;;5036375;28;20077;-83
2021/03/14 03:37:23;;;;;;;1.43;0.50;;;9.00;65.20;;;;;;5038546;28;20025;-84
2021/03/14 03:39:49;;;;;;;2.23;0.57;;;8.90;65.40;;;;;;5043592;28;20028;-84
2021/03/14 03:42:21;;;;;;;0.57;0.40;;;8.80;65.10;;;;;;5052916;28;20472;-84
2021/03/14 03:44:47;;;;;;;0.63;0.10;;;8.90;64.40;;;;;;5046852;28;20086;-84
2021/03/14 03:47:15;;;;;;;0.70;0.20;;;8.90;62.70;;;;;;5063315;28;20204;-84
2021/03/14 03:49:45;;;;;;;2.00;0.47;;;8.80;62.60;;;;;;5040763;28;20107;-84
2021/03/14 03:52:15;;;;;;;0.20;0.17;;;8.90;62.30;;;;;;5033364;28;20053;-84
2021/03/14 03:54:42;;;;;;;0.13;0.10;;;8.90;61.70;;;;;;5050310;28;20028;-84
2021/03/14 03:57:09;;;;;;;1.90;0.30;;;8.90;61.60;;;;;;5044680;28;20103;-83
2021/03/14 03:59:37;;;;;;;0.70;0.20;;;8.90;61.40;;;;;;5047596;28;20017;-84
2021/03/14 04:02:04;;;;;;;0.97;0.20;;;8.90;61.50;;;;;;5049315;28;20026;-83
2021/03/14 04:04:33;;;;;;;0.60;0.20;;;8.90;61.60;;;;;;5036720;28;20079;-84
2021/03/14 04:07:01;;;;;;;0.30;0.30;;;8.80;61.50;;;;;;5038783;28;20079;-84
2021/03/14 04:09:27;;;;;;;0.20;0.20;;;8.80;61.60;;;;;;5051295;28;20029;-84
2021/03/14 04:11:54;;;;;;;0.43;0.20;;;8.90;61.20;;;;;;5046412;28;20025;-84
2021/03/14 04:14:20;;;;;;;0.53;0.10;;;8.90;60.50;;;;;;5037968;28;20030;-84
2021/03/14 04:16:47;;;;;;;2.17;0.20;;;8.80;60.20;;;;;;5051704;28;20079;-84
2021/03/14 04:19:19;;;;;;;0.20;0.10;;;8.80;60.30;;;;;;5042005;28;20032;-84
2021/03/14 04:21:46;;;;;;;0.03;0.00;;;8.80;60.20;;;;;;5039383;28;20476;-84
2021/03/14 04:24:15;;;;;;;0.10;0.00;;;8.90;60.00;;;;;;5049516;28;20033;-84
2021/03/14 04:26:43;;;;;;;0.20;0.00;;;8.90;59.70;;;;;;5039663;28;20495;-84
2021/03/14 04:29:10;;;;;;;0.00;0.00;;;8.90;59.40;;;;;;5049364;28;20037;-84
2021/03/14 04:31:48;;;;;;;3.30;0.10;;;8.80;59.30;;;;;;5048719;28;20096;-84
2021/03/14 04:34:16;;;;;;;1.50;0.00;;;8.70;59.20;;;;;;5039561;28;20065;-84
2021/03/14 04:36:45;;;;;;;2.33;0.00;;;8.70;59.10;;;;;;5040615;28;20105;-84
2021/03/14 04:39:12;;;;;;;0.00;0.00;;;8.60;58.60;;;;;;5048507;28;20072;-84
2021/03/14 04:41:39;;;;;;;0.00;0.00;;;8.60;58.50;;;;;;5041463;28;20033;-84
2021/03/14 04:44:06;;;;;;;0.00;0.00;;;8.60;58.70;;;;;;5039834;28;20025;-83
2021/03/14 04:46:32;;;;;;;1.60;0.00;;;8.60;58.90;;;;;;5053262;28;20029;-84
2021/03/14 04:48:58;;;;;;;0.00;0.00;;;8.60;58.70;;;;;;5043229;28;20060;-84
2021/03/14 04:51:27;;;;;;;0.30;0.00;;;8.60;58.90;;;;;;5037934;28;20420;-84
2021/03/14 04:53:55;;;;;;;0.10;0.00;;;8.80;58.70;;;;;;5041437;28;20029;-84
2021/03/14 04:56:22;;;;;;;0.10;0.00;;;8.80;58.50;;;;;;5044093;28;20056;-84
2021/03/14 04:58:50;;;;;;;1.87;1.70;;;8.80;58.40;;;;;;5035979;28;20018;-83
2021/03/14 05:01:20;;;;;;;0.30;0.30;;;8.80;58.60;;;;;;5044528;28;20391;-84
2021/03/14 05:03:50;;;;;;;0.90;0.87;;;8.80;58.80;;;;;;5045961;28;20380;-84
2021/03/14 05:06:20;;;;;;;1.27;1.07;;;8.80;59.00;;;;;;5043266;28;20033;-84
2021/03/14 05:08:48;;;;;;;0.50;0.40;;;8.80;59.10;;;;;;5038176;28;20037;-84
2021/03/14 05:11:19;;;;;;;2.67;1.63;;;8.70;59.20;;;;;;5034654;28;20506;-84
2021/03/14 05:13:48;;;;;;;0.63;0.50;;;8.70;59.50;;;;;;5045092;28;20380;-84
2021/03/14 05:16:15;;;;;;;0.73;0.20;;;8.70;59.80;;;;;;5037706;28;20384;-84
2021/03/14 05:18:42;;;;;;;0.10;0.10;;;8.60;60.00;;;;;;5044567;28;20029;-84
2021/03/14 05:21:09;;;;;;;13.87;11.00;;;8.60;60.20;;;;;;5052508;28;20056;-84
2021/03/14 05:23:36;;;;;;;4.33;3.93;;;8.60;60.20;;;;;;5034594;28;20018;-84
2021/03/14 05:26:04;;;;;;;1.47;0.70;;;8.60;60.30;;;;;;5039955;28;20044;-84
2021/03/14 05:28:30;;;;;;;0.73;0.40;;;8.60;60.50;;;;;;5041407;28;20029;-84
2021/03/14 05:30:56;;;;;;;22.30;15.67;;;8.50;60.60;;;;;;5037312;28;20480;-84
2021/03/14 05:33:22;;;;;;;2.47;0.83;;;8.50;60.80;;;;;;5044651;28;20073;-84
2021/03/14 05:35:48;;;;;;;1.40;0.70;;;8.40;61.30;;;;;;5046376;28;20491;-84
2021/03/14 05:38:14;;;;;;;29.90;17.57;;;8.40;61.20;;;;;;5040033;28;20602;-84
2021/03/14 05:40:40;;;;;;;3.43;1.63;;;8.50;60.80;;;;;;5039665;28;20033;-84
2021/03/14 05:43:05;;;;;;;107.63;59.17;;;8.50;60.90;;;;;;5037161;28;20018;-84
2021/03/14 05:45:31;;;;;;;2.60;1.17;;;8.60;60.70;;;;;;5041807;28;20024;-84
2021/03/14 05:47:57;;;;;;;1.70;0.60;;;8.60;60.40;;;;;;5050474;28;20032;-84
2021/03/14 05:50:30;;;;;;;2.53;0.80;;;8.50;60.50;;;;;;5038541;28;20021;-83
2021/03/14 05:52:56;;;;;;;;;;;8.50;60.60;;;;;;5037826;28;20464;-83
2021/03/14 05:55:24;;;;;;;3.60;2.20;;;8.50;60.50;;;;;;5047983;28;19915;-84
2021/03/14 05:57:52;;;;;;;1.00;0.50;;;8.50;60.30;;;;;;5045704;28;20028;-84
2021/03/14 06:00:26;;;;;;;0.77;0.50;;;8.50;60.40;;;;;;5042815;28;20052;-84
2021/03/14 06:03:00;;;;;;;0.90;0.40;;;8.40;60.70;;;;;;5040635;28;20079;-84
2021/03/14 06:05:27;;;;;;;1.00;0.40;;;8.40;61.70;;;;;;5043808;28;20020;-83
2021/03/14 06:07:54;;;;;;;2.17;0.83;;;8.40;61.10;;;;;;5056888;28;20059;-84
2021/03/14 06:10:21;;;;;;;13.27;4.07;;;8.40;61.20;;;;;;5042117;28;20022;-84
2021/03/14 06:12:47;;;;;;;24.03;9.43;;;8.40;61.10;;;;;;5040570;28;20022;-84
2021/03/14 06:15:14;;;;;;;13.40;2.40;;;8.30;61.40;;;;;;5045188;28;20030;-83
2021/03/14 06:17:39;;;;;;;7.77;2.43;;;8.30;62.00;;;;;;5040687;28;20033;-84
2021/03/14 06:20:07;;;;;;;16.00;5.70;;;8.30;62.10;;;;;;5045266;28;20140;-84
2021/03/14 06:22:33;;;;;;;10.73;3.23;;;8.40;62.30;;;;;;5046116;28;20029;-83
2021/03/14 06:24:59;;;;;;;12.90;3.40;;;8.50;62.50;;;;;;5039279;28;20029;-84
2021/03/14 06:27:37;;;;;;;9.97;3.50;;;8.50;62.60;;;;;;5039977;28;20535;-83
2021/03/14 06:30:08;;;;;;;4.90;2.10;;;8.50;62.90;;;;;;5046763;28;20409;-83
2021/03/14 06:32:34;;;;;;;3.77;1.60;;;8.50;63.00;;;;;;5038030;28;20025;-83
2021/03/14 06:35:15;;;;;;;5.07;1.50;;;8.50;63.00;;;;;;5041898;28;20049;-83
2021/03/14 06:37:43;;;;;;;4.03;1.40;;;8.60;63.20;;;;;;5039019;28;20029;-83
2021/03/14 06:40:18;;;;;;;3.87;1.50;;;8.60;63.10;;;;;;5040357;28;20064;-83
2021/03/14 06:42:43;;;;;;;5.07;1.20;;;8.60;63.30;;;;;;5048780;28;20028;-83
2021/03/14 06:45:15;;;;;;;1.03;0.40;;;8.60;63.00;;;;;;5045337;28;20384;-83
2021/03/14 06:47:46;;;;;;;2.17;0.20;;;8.60;62.60;;;;;;5044902;28;20036;-83
2021/03/14 06:50:32;;;;;;;0.93;0.30;;;8.50;61.80;;;;;;5037520;28;20029;-83
2021/03/14 06:53:10;;;;;;;1.37;0.40;;;8.50;60.90;;;;;;5033308;28;20041;-83
2021/03/14 06:55:36;;;;;;;0.10;0.00;;;8.60;60.40;;;;;;5041059;28;20032;-83
2021/03/14 06:58:22;;;;;;;0.83;0.53;;;8.50;59.80;;;;;;5046838;28;20052;-83
2021/03/14 07:01:06;;;;;;;0.53;0.30;;;8.50;59.00;;;;;;5046551;28;20025;-83
2021/03/14 07:03:32;;;;;;;0.10;0.10;;;8.50;58.70;;;;;;5040975;28;20048;-83
2021/03/14 07:06:22;;;;;;;0.00;0.00;;;8.40;58.50;;;;;;5045459;28;20025;-83
2021/03/14 07:08:55;;;;;;;0.93;0.10;;;8.30;58.60;;;;;;5040762;28;20028;-83
2021/03/14 07:11:47;;;;;;;0.23;0.10;;;8.20;58.80;;;;;;5061373;28;20108;-84
2021/03/14 07:14:14;;;;;;;22.03;8.33;;;8.20;58.60;;;;;;5048802;28;20036;-83
2021/03/14 07:16:47;;;;;;;15.20;6.13;;;8.20;58.30;;;;;;5045153;28;20433;-83
2021/03/14 07:19:22;;;;;;;12.97;7.10;;;8.20;58.40;;;;;;5045870;28;20052;-83
2021/03/14 07:22:05;;;;;;;14.17;6.50;;;8.30;58.50;;;;;;5039558;28;20048;-83
2021/03/14 07:24:39;;;;;;;9.82;5.55;;;8.30;58.70;;;;;;5044878;28;20666;-83
2021/03/14 07:27:07;;;;;;;14.50;7.73;;;8.40;58.70;;;;;;5047329;28;20025;-84
2021/03/14 07:29:35;;;;;;;7.30;4.13;;;8.40;58.70;;;;;;5037232;28;20480;-83
2021/03/14 07:32:03;;;;;;;7.37;4.17;;;8.50;59.30;;;;;;5057280;28;20071;-83
2021/03/14 07:34:30;;;;;;;7.23;4.47;;;8.40;58.70;;;;;;5034969;28;20045;-83
2021/03/14 07:36:56;;;;;;;4.43;2.50;;;8.50;58.80;;;;;;5030541;28;20704;-83
2021/03/14 07:39:22;;;;;;;2.97;1.70;;;8.70;58.70;;;;;;5037513;28;20037;-83
2021/03/14 07:41:49;;;;;;;1.67;1.10;;;8.70;58.70;;;;;;5047569;28;20495;-83
2021/03/14 07:44:21;;;;;;;2.63;1.20;;;8.90;58.60;;;;;;5043361;28;20044;-84
2021/03/14 07:46:50;;;;;;;5.15;2.97;;;9.20;58.10;;;;;;5047605;28;20055;-84
2021/03/14 07:49:19;;;;;;;3.60;1.37;;;9.20;57.50;;;;;;5051761;28;20033;-84
2021/03/14 07:51:51;;;;;;;2.10;1.07;;;9.20;57.60;;;;;;5050018;28;20029;-84
2021/03/14 07:54:33;;;;;;;1.67;0.80;;;9.50;57.70;;;;;;5042260;28;20029;-84
2021/03/14 07:57:01;;;;;;;1.40;0.50;;;9.60;56.80;;;;;;5039923;28;20025;-83
2021/03/14 07:59:29;;;;;;;1.70;0.60;;;9.60;56.60;;;;;;5043188;28;20084;-83
2021/03/14 08:02:21;;;;;;;3.13;0.63;;;9.60;56.40;;;;;;5042381;28;20025;-83
2021/03/14 08:04:58;;;;;;;0.60;0.40;;;9.40;56.80;;;;;;5054275;28;20025;-84
2021/03/14 08:07:33;;;;;;;1.23;0.50;;;9.40;57.20;;;;;;5052324;28;20055;-84
2021/03/14 08:10:10;;;;;;;0.50;0.30;;;9.80;56.20;;;;;;5048354;28;20475;-83
2021/03/14 08:12:43;;;;;;;0.73;0.40;;;9.90;55.00;;;;;;5049162;28;20028;-83
2021/03/14 08:15:17;;;;;;;;;;;9.60;54.60;;;;;;5044728;28;20498;-83
2021/03/14 08:17:43;;;;;;;1.57;0.63;;;9.50;55.10;;;;;;5048557;28;19996;-83
2021/03/14 08:20:12;;;;;;;0.20;0.20;;;9.20;55.30;;;;;;5041392;28;20034;-83
2021/03/14 08:22:38;;;;;;;0.53;0.20;;;9.10;54.90;;;;;;5047055;28;20021;-83
2021/03/14 08:25:34;;;;;;;1.60;0.90;;;9.10;55.00;;;;;;5043379;28;20030;-84
2021/03/14 08:28:21;;;;;;;1.17;0.53;;;9.40;54.70;;;;;;5043003;28;20036;-83
2021/03/14 08:30:48;;;;;;;0.97;0.47;;;9.40;54.60;;;;;;5043829;28;20082;-83
2021/03/14 08:33:26;;;;;;;1.40;0.80;;;9.30;54.70;;;;;;5052354;28;20033;-83
2021/03/14 08:36:00;;;;;;;4.27;1.60;;;9.30;54.90;;;;;;5039181;28;20107;-83
2021/03/14 08:38:32;;;;;;;2.90;1.33;;;9.20;55.20;;;;;;5038656;28;20029;-84
2021/03/14 08:41:18;;;;;;;2.17;1.10;;;9.10;55.10;;;;;;5043506;28;20041;-84
2021/03/14 08:43:46;;;;;;;3.07;1.30;;;9.10;55.60;;;;;;5041605;28;20353;-84
2021/03/14 08:46:12;;;;;;;18.77;9.07;;;9.00;54.80;;;;;;5043967;28;20033;-84
2021/03/14 08:48:38;;;;;;;6.90;1.93;;;9.00;54.50;;;;;;5042363;28;20128;-84
2021/03/14 08:51:08;;;;;;;7.73;3.60;;;9.10;54.30;;;;;;5040350;28;20060;-84
2021/03/14 08:53:35;;;;;;;9.00;4.17;;;9.10;54.10;;;;;;5036728;28;20029;-84
2021/03/14 08:56:03;;;;;;;14.03;7.57;;;9.10;54.10;;;;;;5044731;28;20030;-84
2021/03/14 08:58:28;;;;;;;4.37;2.70;;;9.20;54.10;;;;;;5040211;28;20079;-84
2021/03/14 09:01:04;;;;;;;3.43;1.30;;;9.30;53.50;;;;;;5039180;28;20025;-84
2021/03/14 09:03:31;;;;;;;1.07;0.50;;;9.30;53.30;;;;;;5044850;28;20467;-84
2021/03/14 09:06:21;;;;;;;3.27;1.60;;;9.10;53.10;;;;;;5043762;28;20029;-84
2021/03/14 09:09:16;;;;;;;1.67;0.80;;;9.00;52.30;;;;;;5044245;28;20052;-84
2021/03/14 09:11:45;;;;;;;2.30;0.80;;;9.30;52.90;;;;;;5037162;28;20056;-84
2021/03/14 09:14:23;;;;;;;1.83;0.70;;;9.40;52.30;;;;;;5038646;28;20043;-84
2021/03/14 09:16:50;;;;;;;1.50;0.70;;;9.40;51.60;;;;;;5043241;28;20391;-84
2021/03/14 09:19:26;;;;;;;0.40;0.00;;;9.20;51.10;;;;;;5055639;28;20025;-84
2021/03/14 09:21:58;;;;;;;0.10;0.00;;;9.00;50.30;;;;;;5041523;28;20034;-84
2021/03/14 09:24:25;;;;;;;1.10;0.30;;;9.00;49.10;;;;;;5048518;28;20021;-84
2021/03/14 09:27:00;;;;;;;0.57;0.30;;;9.00;49.00;;;;;;5051370;28;20027;-84
2021/03/14 09:29:37;;;;;;;0.13;0.10;;;8.90;48.90;;;;;;5044632;28;20044;-84
2021/03/14 09:32:12;;;;;;;0.90;0.20;;;8.70;49.10;;;;;;5052251;28;20036;-84
2021/03/14 09:34:38;;;;;;;1.00;0.50;;;8.70;49.50;;;;;;5037679;28;20073;-84
2021/03/14 09:37:04;;;;;;;0.87;0.57;;;8.80;49.60;;;;;;5046716;28;20057;-84
2021/03/14 09:39:29;;;;;;;1.60;0.57;;;8.80;49.30;;;;;;5040887;28;20045;-84
2021/03/14 09:41:55;;;;;;;1.13;0.50;;;8.70;49.30;;;;;;5039876;28;20472;-84
2021/03/14 09:44:21;;;;;;;1.53;0.80;;;8.70;49.30;;;;;;5047912;28;20021;-84
2021/03/14 09:47:02;;;;;;;2.37;0.50;;;8.80;49.00;;;;;;5046063;28;20040;-83
2021/03/14 09:49:29;;;;;;;0.77;0.40;;;8.80;49.00;;;;;;5047185;28;20030;-84
2021/03/14 09:51:56;;;;;;;1.03;0.40;;;8.90;48.80;;;;;;5042241;28;20030;-84
2021/03/14 09:54:24;;;;;;;1.03;0.40;;;8.90;48.70;;;;;;5046771;28;20033;-84
2021/03/14 09:56:54;;;;;;;1.37;0.70;;;9.10;48.90;;;;;;5044928;28;20029;-84
2021/03/14 09:59:26;;;;;;;2.10;0.87;;;9.20;49.10;;;;;;5040374;28;20021;-84
2021/03/14 10:01:53;;;;;;;1.10;0.40;;;9.60;49.10;;;;;;5038811;28;20029;-84
2021/03/14 10:04:19;;;;;;;0.77;0.30;;;9.60;48.80;;;;;;5049590;28;20052;-84
2021/03/14 10:06:46;;;;;;;0.60;0.20;;;9.40;48.50;;;;;;5044218;28;20025;-84
2021/03/14 10:09:23;;;;;;;2.10;0.53;;;9.30;48.70;;;;;;5054937;28;20649;-84
2021/03/14 10:11:50;;;;;;;2.33;0.40;;;9.30;48.60;;;;;;5037239;28;20116;-84
2021/03/14 10:14:18;;;;;;;0.67;0.30;;;9.30;48.60;;;;;;5045747;28;20512;-84
2021/03/14 10:16:44;;;;;;;1.63;0.40;;;9.40;48.60;;;;;;5045377;28;20044;-84
2021/03/14 10:19:11;;;;;;;0.30;0.10;;;9.20;48.20;;;;;;5038521;28;20168;-84
2021/03/14 10:21:46;;;;;;;3.23;0.30;;;9.20;48.40;;;;;;5039641;28;20083;-84
2021/03/14 10:24:16;;;;;;;0.20;0.10;;;9.30;47.90;;;;;;5055398;28;20029;-84
2021/03/14 10:26:56;;;;;;;0.60;0.20;;;9.30;48.00;;;;;;5041130;28;20034;-84
2021/03/14 10:29:29;;;;;;;1.93;0.50;;;9.30;48.20;;;;;;5046840;28;20033;-84
2021/03/14 10:31:55;;;;;;;;;;;9.30;48.30;;;;;;5052453;28;20123;-84
2021/03/14 10:34:22;;;;;;;0.77;0.30;;;9.20;48.10;;;;;;5036515;28;19932;-84
2021/03/14 10:36:49;;;;;;;0.77;0.17;;;8.90;48.20;;;;;;5040060;28;20072;-84
2021/03/14 10:39:26;;;;;;;1.87;0.40;;;8.80;48.20;;;;;;5048101;28;20025;-84
2021/03/14 10:41:52;;;;;;;0.60;0.20;;;8.70;48.30;;;;;;5054237;28;20089;-84
2021/03/14 10:44:20;;;;;;;1.03;0.20;;;8.90;48.80;;;;;;5052854;28;20037;-84
2021/03/14 10:46:53;;;;;;;1.87;0.93;;;8.90;48.60;;;;;;5042738;28;20404;-84
2021/03/14 10:49:27;;;;;;;0.70;0.30;;;8.80;49.00;;;;;;5050257;28;20419;-84
2021/03/14 10:51:55;;;;;;;3.90;1.90;;;8.90;49.60;;;;;;5045303;28;20049;-84
2021/03/14 10:54:22;;;;;;;2.10;0.30;;;8.80;49.70;;;;;;5039259;28;20055;-84
2021/03/14 10:56:50;;;;;;;1.47;0.60;;;8.90;49.90;;;;;;5041111;28;20030;-84
2021/03/14 10:59:24;;;;;;;1.23;0.40;;;8.90;50.00;;;;;;5046339;28;20032;-84
2021/03/14 11:02:04;;;;;;;0.90;0.30;;;9.00;50.10;;;;;;5041520;28;20030;-84
2021/03/14 11:04:32;;;;;;;0.40;0.20;;;9.10;50.20;;;;;;5044643;28;20071;-84
2021/03/14 11:06:57;;;;;;;3.93;0.47;;;9.20;50.30;;;;;;5045157;28;20029;-84
2021/03/14 11:09:26;;;;;;;4.73;1.83;;;9.20;50.50;;;;;;5037264;28;20086;-84
2021/03/14 11:11:53;;;;;;;6.17;2.97;;;9.30;50.50;;;;;;5051176;28;20082;-84
2021/03/14 11:14:38;;;;;;;3.00;2.27;;;9.30;50.30;;;;;;5045392;28;20029;-84
2021/03/14 11:17:09;;;;;;;4.47;1.40;;;9.40;50.30;;;;;;5036653;28;20084;-84
2021/03/14 11:19:37;;;;;;;2.20;0.40;;;9.60;50.20;;;;;;5045854;28;20029;-84
2021/03/14 11:22:04;;;;;;;1.10;0.30;;;9.70;50.20;;;;;;5053205;28;20125;-84
2021/03/14 11:24:30;;;;;;;1.37;0.30;;;9.70;49.90;;;;;;5036665;28;20074;-85
2021/03/14 11:26:56;;;;;;;0.63;0.20;;;9.70;49.90;;;;;;5041496;28;20049;-84
2021/03/14 11:29:22;;;;;;;4.97;0.40;;;9.80;49.90;;;;;;5036451;28;20032;-84
2021/03/14 11:31:47;;;;;;;0.50;0.20;;;9.90;49.80;;;;;;5056261;28;20100;-85
2021/03/14 11:34:13;;;;;;;3.10;0.97;;;9.90;49.40;;;;;;5050670;28;20049;-85
2021/03/14 11:36:39;;;;;;;4.07;1.53;;;10.00;49.10;;;;;;5050216;28;20026;-85
2021/03/14 11:39:05;;;;;;;2.93;0.97;;;10.00;48.80;;;;;;5051423;28;20025;-85
2021/03/14 11:41:35;;;;;;;5.27;2.27;;;10.00;49.00;;;;;;5049806;28;20082;-85
2021/03/14 11:44:01;;;;;;;4.67;2.03;;;10.00;48.10;;;;;;5046698;28;20094;-85
2021/03/14 11:46:27;;;;;;;5.87;2.10;;;10.10;47.90;;;;;;5048157;28;20112;-85
2021/03/14 11:48:54;;;;;;;6.03;2.93;;;10.10;47.30;;;;;;5048579;28;20025;-85
2021/03/14 11:51:20;;;;;;;3.20;1.50;;;10.20;47.00;;;;;;5047499;28;20061;-85
2021/03/14 11:53:46;;;;;;;10.07;3.30;;;10.20;46.40;;;;;;5040792;28;20029;-85
2021/03/14 11:56:12;;;;;;;4.53;1.27;;;10.20;46.30;;;;;;5042011;28;20400;-86
2021/03/14 11:58:38;;;;;;;3.97;1.03;;;10.30;46.30;;;;;;5050637;28;20029;-84
2021/03/14 12:01:04;;;;;;;5.10;0.90;;;10.10;45.80;;;;;;5047139;28;20065;-84
2021/03/14 12:03:33;;;;;;;2.83;0.80;;;10.10;46.00;;;;;;5047960;28;20018;-84
2021/03/14 12:05:58;;;;;;;2.43;0.73;;;10.10;46.40;;;;;;5041432;28;20021;-84
2021/03/14 12:08:24;;;;;;;2.00;0.60;;;9.90;46.60;;;;;;5047707;28;20031;-84
2021/03/14 12:10:50;;;;;;;1.80;0.90;;;9.90;47.40;;;;;;5045393;28;20438;-84
2021/03/14 12:13:16;;;;;;;0.70;0.30;;;9.70;47.30;;;;;;5042218;28;20464;-85
2021/03/14 12:15:45;;;;;;;1.27;0.50;;;9.30;47.40;;;;;;5046724;28;20013;-83
2021/03/14 12:18:11;;;;;;;1.07;0.50;;;9.00;48.20;;;;;;5045072;28;20025;-84
2021/03/14 12:20:38;;;;;;;1.43;0.30;;;9.10;48.50;;;;;;5043184;28;20028;-83
2021/03/14 12:23:04;;;;;;;2.93;0.47;;;9.20;48.50;;;;;;5047401;28;20435;-83
2021/03/14 12:25:30;;;;;;;0.83;0.30;;;9.40;48.70;;;;;;5048966;28;20032;-83
2021/03/14 12:27:58;;;;;;;1.53;0.20;;;9.30;48.40;;;;;;5046506;28;20360;-84
2021/03/14 12:30:24;;;;;;;0.70;0.40;;;9.20;48.30;;;;;;5051176;28;20029;-85
2021/03/14 12:32:50;;;;;;;1.20;0.30;;;9.10;48.20;;;;;;5056310;28;20029;-84
2021/03/14 12:35:16;;;;;;;0.60;0.30;;;9.10;48.50;;;;;;5054058;28;20071;-84
2021/03/14 12:37:41;;;;;;;1.03;0.70;;;9.20;48.70;;;;;;5047420;28;20033;-85
2021/03/14 12:40:08;;;;;;;1.23;0.20;;;9.30;48.70;;;;;;5041055;28;20025;-84
2021/03/14 12:42:34;;;;;;;5.40;2.97;;;9.30;48.50;;;;;;5048450;28;20025;-84
2021/03/14 12:45:00;;;;;;;2.30;1.00;;;9.20;48.50;;;;;;5046736;28;20522;-86
2021/03/14 12:47:26;;;;;;;1.57;0.50;;;9.10;48.80;;;;;;5047486;28;20044;-85
2021/03/14 12:49:52;;;;;;;0.77;0.57;;;9.20;48.90;;;;;;5050414;28;20032;-85
2021/03/14 12:52:19;;;;;;;0.33;0.30;;;9.20;48.70;;;;;;5044400;28;20034;-84
2021/03/14 12:54:44;;;;;;;2.73;0.30;;;9.20;48.50;;;;;;5040364;28;20033;-84
2021/03/14 12:57:10;;;;;;;1.13;0.53;;;9.00;48.50;;;;;;5050859;28;20052;-85
2021/03/14 12:59:36;;;;;;;0.70;0.30;;;9.00;48.70;;;;;;5040898;28;20033;-84
2021/03/14 13:02:01;;;;;;;0.77;0.40;;;9.20;48.20;;;;;;5042920;28;20544;-84
2021/03/14 13:04:27;;;;;;;1.00;0.40;;;9.00;47.80;;;;;;5041272;28;20025;-84